sensor_id;sensor_type;location;lat;lon;timestamp;temperature;humidity
11599;DHT22;5855;48.840;9.188;2023-04-01T00:01:40;8.90;99.90
11599;DHT22;5855;48.840;9.188;2023-04-01T00:04:08;8.80;99.90
11599;DHT22;5855;48.840;9.188;2023-04-01T00:06:35;8.80;99.90
11599;DHT22;5855;48.840;9.188;2023-04-01T00:09:02;8.90;99.90
11599;DHT22;5855;48.840;9.188;2023-04-01T00:11:30;8.90;99.90
11599;DHT22;5855;48.840;9.188;2023-04-01T00:13:56;8.90;99.90
11599;DHT22;5855;48.840;9.188;2023-04-01T00:16:23;8.90;99.90
11599;DHT22;5855;48.840;9.188;2023-04-01T00:18:51;9.00;99.90
11599;DHT22;5855;48.840;9.188;2023-04-01T00:21:20;9.00;99.90
11599;DHT22;5855;48.840;9.188;2023-04-01T00:23:47;9.00;99.90
11599;DHT22;5855;48.840;9.188;2023-04-01T00:26:14;9.10;99.90
11599;DHT22;5855;48.840;9.188;2023-04-01T00:28:44;9.00;99.90
11599;DHT22;5855;48.840;9.188;2023-04-01T00:31:11;9.10;99.90
11599;DHT22;5855;48.840;9.188;2023-04-01T00:33:39;9.00;99.90
11599;DHT22;5855;48.840;9.188;2023-04-01T00:36:08;9.00;99.90
11599;DHT22;5855;48.840;9.188;2023-04-01T00:38:37;9.00;99.90
11599;DHT22;5855;48.840;9.188;2023-04-01T00:41:04;9.10;99.90
11599;DHT22;5855;48.840;9.188;2023-04-01T00:43:31;9.00;99.90
11599;DHT22;5855;48.840;9.188;2023-04-01T00:45:58;9.00;99.90
11599;DHT22;5855;48.840;9.188;2023-04-01T00:48:28;9.00;99.90
11599;DHT22;5855;48.840;9.188;2023-04-01T00:51:00;9.10;99.90
11599;DHT22;5855;48.840;9.188;2023-04-01T00:53:30;9.10;99.90
11599;DHT22;5855;48.840;9.188;2023-04-01T00:56:03;9.10;99.90
11599;DHT22;5855;48.840;9.188;2023-04-01T00:58:34;9.20;99.90
11599;DHT22;5855;48.840;9.188;2023-04-01T01:01:02;9.20;99.90
11599;DHT22;5855;48.840;9.188;2023-04-01T01:03:28;9.20;99.90
11599;DHT22;5855;48.840;9.188;2023-04-01T01:06:10;9.10;99.90
11599;DHT22;5855;48.840;9.188;2023-04-01T01:08:55;9.20;99.90
11599;DHT22;5855;48.840;9.188;2023-04-01T01:11:35;9.20;99.90
11599;DHT22;5855;48.840;9.188;2023-04-01T01:14:09;9.20;99.90
11599;DHT22;5855;48.840;9.188;2023-04-01T01:16:43;9.30;99.90
11599;DHT22;5855;48.840;9.188;2023-04-01T01:19:31;9.20;99.90
11599;DHT22;5855;48.840;9.188;2023-04-01T01:22:39;9.20;99.90
11599;DHT22;5855;48.840;9.188;2023-04-01T01:25:18;9.20;99.90
11599;DHT22;5855;48.840;9.188;2023-04-01T01:27:56;9.10;99.90
11599;DHT22;5855;48.840;9.188;2023-04-01T01:30:43;9.20;99.90
11599;DHT22;5855;48.840;9.188;2023-04-01T01:33:25;9.20;99.90
11599;DHT22;5855;48.840;9.188;2023-04-01T01:35:58;9.10;99.90
11599;DHT22;5855;48.840;9.188;2023-04-01T01:38:31;9.10;99.90
11599;DHT22;5855;48.840;9.188;2023-04-01T01:41:01;9.10;99.90
11599;DHT22;5855;48.840;9.188;2023-04-01T01:43:30;9.10;99.90
11599;DHT22;5855;48.840;9.188;2023-04-01T01:46:00;9.10;99.90
11599;DHT22;5855;48.840;9.188;2023-04-01T01:48:29;9.10;99.90
11599;DHT22;5855;48.840;9.188;2023-04-01T01:50:59;9.10;99.90
11599;DHT22;5855;48.840;9.188;2023-04-01T01:53:26;9.00;99.90
11599;DHT22;5855;48.840;9.188;2023-04-01T01:55:53;9.00;99.90
11599;DHT22;5855;48.840;9.188;2023-04-01T01:58:22;9.00;99.90
11599;DHT22;5855;48.840;9.188;2023-04-01T02:00:52;8.90;99.90
11599;DHT22;5855;48.840;9.188;2023-04-01T02:03:21;8.80;99.90
11599;DHT22;5855;48.840;9.188;2023-04-01T02:05:51;8.80;99.90
11599;DHT22;5855;48.840;9.188;2023-04-01T02:08:25;8.80;99.90
11599;DHT22;5855;48.840;9.188;2023-04-01T02:10:57;8.80;99.90
11599;DHT22;5855;48.840;9.188;2023-04-01T02:13:29;8.80;99.90
11599;DHT22;5855;48.840;9.188;2023-04-01T02:16:00;8.80;99.90
11599;DHT22;5855;48.840;9.188;2023-04-01T02:18:30;8.70;99.90
11599;DHT22;5855;48.840;9.188;2023-04-01T02:21:00;8.70;99.90
11599;DHT22;5855;48.840;9.188;2023-04-01T02:23:32;8.70;99.90
11599;DHT22;5855;48.840;9.188;2023-04-01T02:26:00;8.70;99.90
11599;DHT22;5855;48.840;9.188;2023-04-01T02:28:28;8.70;99.90
11599;DHT22;5855;48.840;9.188;2023-04-01T02:30:57;8.60;99.90
11599;DHT22;5855;48.840;9.188;2023-04-01T02:33:28;8.60;99.90
11599;DHT22;5855;48.840;9.188;2023-04-01T02:35:55;8.70;99.90
11599;DHT22;5855;48.840;9.188;2023-04-01T02:38:22;8.60;99.90
11599;DHT22;5855;48.840;9.188;2023-04-01T02:40:57;8.60;99.90
11599;DHT22;5855;48.840;9.188;2023-04-01T02:43:24;8.60;99.90
11599;DHT22;5855;48.840;9.188;2023-04-01T02:45:50;8.60;99.90
11599;DHT22;5855;48.840;9.188;2023-04-01T02:48:17;8.50;99.90
11599;DHT22;5855;48.840;9.188;2023-04-01T02:50:44;8.60;99.90
11599;DHT22;5855;48.840;9.188;2023-04-01T02:53:11;8.60;99.90
11599;DHT22;5855;48.840;9.188;2023-04-01T02:55:38;8.60;99.90
11599;DHT22;5855;48.840;9.188;2023-04-01T02:58:06;8.60;99.90
11599;DHT22;5855;48.840;9.188;2023-04-01T03:00:33;8.60;99.90
11599;DHT22;5855;48.840;9.188;2023-04-01T03:03:00;8.60;99.90
11599;DHT22;5855;48.840;9.188;2023-04-01T03:05:28;8.50;99.90
11599;DHT22;5855;48.840;9.188;2023-04-01T03:07:55;8.50;99.90
11599;DHT22;5855;48.840;9.188;2023-04-01T03:10:22;8.40;99.90
11599;DHT22;5855;48.840;9.188;2023-04-01T03:12:49;8.50;99.90
11599;DHT22;5855;48.840;9.188;2023-04-01T03:15:17;8.50;99.90
11599;DHT22;5855;48.840;9.188;2023-04-01T03:17:44;8.60;99.90
11599;DHT22;5855;48.840;9.188;2023-04-01T03:20:12;8.60;99.90
11599;DHT22;5855;48.840;9.188;2023-04-01T03:22:39;8.60;99.90
11599;DHT22;5855;48.840;9.188;2023-04-01T03:25:07;8.60;99.90
11599;DHT22;5855;48.840;9.188;2023-04-01T03:27:34;8.60;99.90
11599;DHT22;5855;48.840;9.188;2023-04-01T03:30:02;8.60;99.90
11599;DHT22;5855;48.840;9.188;2023-04-01T03:32:30;8.60;99.90
11599;DHT22;5855;48.840;9.188;2023-04-01T03:34:57;8.50;99.90
11599;DHT22;5855;48.840;9.188;2023-04-01T03:37:24;8.50;99.90
11599;DHT22;5855;48.840;9.188;2023-04-01T03:39:51;8.40;99.90
11599;DHT22;5855;48.840;9.188;2023-04-01T03:42:18;8.50;99.90
11599;DHT22;5855;48.840;9.188;2023-04-01T03:44:45;8.40;99.90
11599;DHT22;5855;48.840;9.188;2023-04-01T03:47:12;8.50;99.90
11599;DHT22;5855;48.840;9.188;2023-04-01T03:49:40;8.50;99.90
11599;DHT22;5855;48.840;9.188;2023-04-01T03:52:09;8.40;99.90
11599;DHT22;5855;48.840;9.188;2023-04-01T03:54:36;8.40;99.90
11599;DHT22;5855;48.840;9.188;2023-04-01T03:57:02;8.40;99.90
11599;DHT22;5855;48.840;9.188;2023-04-01T03:59:29;8.40;99.90
11599;DHT22;5855;48.840;9.188;2023-04-01T04:01:56;8.30;99.90
11599;DHT22;5855;48.840;9.188;2023-04-01T04:04:23;8.30;99.90
11599;DHT22;5855;48.840;9.188;2023-04-01T04:06:51;8.40;99.90
11599;DHT22;5855;48.840;9.188;2023-04-01T04:09:18;8.30;99.90
11599;DHT22;5855;48.840;9.188;2023-04-01T04:11:45;8.30;99.90
11599;DHT22;5855;48.840;9.188;2023-04-01T04:14:11;8.30;99.90
11599;DHT22;5855;48.840;9.188;2023-04-01T04:16:38;8.40;99.90
11599;DHT22;5855;48.840;9.188;2023-04-01T04:19:05;8.50;99.90
11599;DHT22;5855;48.840;9.188;2023-04-01T04:21:32;8.50;99.90
11599;DHT22;5855;48.840;9.188;2023-04-01T04:24:01;8.60;99.90
11599;DHT22;5855;48.840;9.188;2023-04-01T04:26:28;8.60;99.90
11599;DHT22;5855;48.840;9.188;2023-04-01T04:28:55;8.60;99.90
11599;DHT22;5855;48.840;9.188;2023-04-01T04:31:23;8.50;99.90
11599;DHT22;5855;48.840;9.188;2023-04-01T04:33:50;8.50;99.90
11599;DHT22;5855;48.840;9.188;2023-04-01T04:36:17;8.50;99.90
11599;DHT22;5855;48.840;9.188;2023-04-01T04:38:45;8.50;99.90
11599;DHT22;5855;48.840;9.188;2023-04-01T04:41:15;8.50;99.90
11599;DHT22;5855;48.840;9.188;2023-04-01T04:43:49;8.50;99.90
11599;DHT22;5855;48.840;9.188;2023-04-01T04:46:16;8.40;99.90
11599;DHT22;5855;48.840;9.188;2023-04-01T04:48:43;8.50;99.90
11599;DHT22;5855;48.840;9.188;2023-04-01T04:51:13;8.50;99.90
11599;DHT22;5855;48.840;9.188;2023-04-01T04:53:41;8.40;99.90
11599;DHT22;5855;48.840;9.188;2023-04-01T04:56:08;8.30;99.90
11599;DHT22;5855;48.840;9.188;2023-04-01T04:58:36;8.30;99.90
11599;DHT22;5855;48.840;9.188;2023-04-01T05:01:07;8.30;99.90
11599;DHT22;5855;48.840;9.188;2023-04-01T05:03:34;8.30;99.90
11599;DHT22;5855;48.840;9.188;2023-04-01T05:06:01;8.20;99.90
11599;DHT22;5855;48.840;9.188;2023-04-01T05:08:28;8.20;99.90
11599;DHT22;5855;48.840;9.188;2023-04-01T05:10:55;8.20;99.90
11599;DHT22;5855;48.840;9.188;2023-04-01T05:13:22;8.20;99.90
11599;DHT22;5855;48.840;9.188;2023-04-01T05:15:50;8.20;99.90
11599;DHT22;5855;48.840;9.188;2023-04-01T05:18:17;8.20;99.90
11599;DHT22;5855;48.840;9.188;2023-04-01T05:20:48;8.30;99.90
11599;DHT22;5855;48.840;9.188;2023-04-01T05:23:15;8.20;99.90
11599;DHT22;5855;48.840;9.188;2023-04-01T05:25:42;8.30;99.90
11599;DHT22;5855;48.840;9.188;2023-04-01T05:28:10;8.20;99.90
11599;DHT22;5855;48.840;9.188;2023-04-01T05:30:39;8.20;99.90
11599;DHT22;5855;48.840;9.188;2023-04-01T05:33:09;8.10;99.90
11599;DHT22;5855;48.840;9.188;2023-04-01T05:35:36;8.10;99.90
11599;DHT22;5855;48.840;9.188;2023-04-01T05:38:03;8.10;99.90
11599;DHT22;5855;48.840;9.188;2023-04-01T05:40:32;8.10;99.90
11599;DHT22;5855;48.840;9.188;2023-04-01T05:42:59;8.20;99.90
11599;DHT22;5855;48.840;9.188;2023-04-01T05:45:26;8.30;99.90
11599;DHT22;5855;48.840;9.188;2023-04-01T05:47:53;8.40;99.90
11599;DHT22;5855;48.840;9.188;2023-04-01T05:50:21;8.40;99.90
11599;DHT22;5855;48.840;9.188;2023-04-01T05:52:48;8.40;99.90
11599;DHT22;5855;48.840;9.188;2023-04-01T05:55:15;8.50;99.90
11599;DHT22;5855;48.840;9.188;2023-04-01T05:57:41;8.50;99.90
11599;DHT22;5855;48.840;9.188;2023-04-01T06:00:09;8.60;99.90
11599;DHT22;5855;48.840;9.188;2023-04-01T06:02:36;8.60;99.90
11599;DHT22;5855;48.840;9.188;2023-04-01T06:05:13;8.80;99.90
11599;DHT22;5855;48.840;9.188;2023-04-01T06:07:42;9.00;99.90
11599;DHT22;5855;48.840;9.188;2023-04-01T06:10:13;9.10;99.90
11599;DHT22;5855;48.840;9.188;2023-04-01T06:12:56;9.20;99.90
11599;DHT22;5855;48.840;9.188;2023-04-01T06:15:34;9.20;99.90
11599;DHT22;5855;48.840;9.188;2023-04-01T06:21:33;9.40;99.90
11599;DHT22;5855;48.840;9.188;2023-04-01T06:24:13;9.50;99.90
11599;DHT22;5855;48.840;9.188;2023-04-01T06:26:47;9.50;99.90
11599;DHT22;5855;48.840;9.188;2023-04-01T06:29:32;9.60;99.90
11599;DHT22;5855;48.840;9.188;2023-04-01T06:32:36;9.60;99.90
11599;DHT22;5855;48.840;9.188;2023-04-01T06:35:20;9.60;99.90
11599;DHT22;5855;48.840;9.188;2023-04-01T06:38:15;9.70;99.90
11599;DHT22;5855;48.840;9.188;2023-04-01T06:41:21;9.80;99.90
11599;DHT22;5855;48.840;9.188;2023-04-01T06:43:57;9.80;99.90
11599;DHT22;5855;48.840;9.188;2023-04-01T06:46:30;9.80;99.90
11599;DHT22;5855;48.840;9.188;2023-04-01T06:49:19;9.80;99.90
11599;DHT22;5855;48.840;9.188;2023-04-01T06:51:54;9.90;99.90
11599;DHT22;5855;48.840;9.188;2023-04-01T06:54:28;9.90;99.90
11599;DHT22;5855;48.840;9.188;2023-04-01T06:57:00;9.90;99.90
11599;DHT22;5855;48.840;9.188;2023-04-01T06:59:33;9.90;99.90
11599;DHT22;5855;48.840;9.188;2023-04-01T07:02:10;10.00;99.90
11599;DHT22;5855;48.840;9.188;2023-04-01T07:04:44;9.90;99.90
11599;DHT22;5855;48.840;9.188;2023-04-01T07:07:16;10.00;99.90
11599;DHT22;5855;48.840;9.188;2023-04-01T07:09:49;10.00;99.90
11599;DHT22;5855;48.840;9.188;2023-04-01T07:12:22;10.00;99.90
11599;DHT22;5855;48.840;9.188;2023-04-01T07:14:51;10.00;99.90
11599;DHT22;5855;48.840;9.188;2023-04-01T07:17:21;10.10;99.90
11599;DHT22;5855;48.840;9.188;2023-04-01T07:19:53;10.10;99.90
11599;DHT22;5855;48.840;9.188;2023-04-01T07:22:29;10.00;99.90
11599;DHT22;5855;48.840;9.188;2023-04-01T07:24:59;10.00;99.90
11599;DHT22;5855;48.840;9.188;2023-04-01T07:27:29;10.00;99.90
11599;DHT22;5855;48.840;9.188;2023-04-01T07:29:56;10.00;99.90
11599;DHT22;5855;48.840;9.188;2023-04-01T07:32:32;10.00;99.90
11599;DHT22;5855;48.840;9.188;2023-04-01T07:35:17;9.90;99.90
11599;DHT22;5855;48.840;9.188;2023-04-01T07:40:42;9.90;99.90
11599;DHT22;5855;48.840;9.188;2023-04-01T07:43:25;9.90;99.90
11599;DHT22;5855;48.840;9.188;2023-04-01T07:46:03;9.90;99.90
11599;DHT22;5855;48.840;9.188;2023-04-01T07:48:39;9.90;99.90
11599;DHT22;5855;48.840;9.188;2023-04-01T07:51:13;9.90;99.90
11599;DHT22;5855;48.840;9.188;2023-04-01T07:53:44;10.00;99.90
11599;DHT22;5855;48.840;9.188;2023-04-01T07:56:17;10.00;99.90
11599;DHT22;5855;48.840;9.188;2023-04-01T07:58:55;10.20;99.90
11599;DHT22;5855;48.840;9.188;2023-04-01T08:01:30;10.20;99.90
11599;DHT22;5855;48.840;9.188;2023-04-01T08:04:14;10.20;99.90
11599;DHT22;5855;48.840;9.188;2023-04-01T08:06:48;10.30;99.90
11599;DHT22;5855;48.840;9.188;2023-04-01T08:09:27;10.40;99.90
11599;DHT22;5855;48.840;9.188;2023-04-01T08:12:04;10.40;99.90
11599;DHT22;5855;48.840;9.188;2023-04-01T08:14:41;10.40;99.90
11599;DHT22;5855;48.840;9.188;2023-04-01T08:17:17;10.30;99.90
11599;DHT22;5855;48.840;9.188;2023-04-01T08:19:59;10.40;99.90
11599;DHT22;5855;48.840;9.188;2023-04-01T08:22:33;10.50;99.90
11599;DHT22;5855;48.840;9.188;2023-04-01T08:25:04;10.40;99.90
11599;DHT22;5855;48.840;9.188;2023-04-01T08:27:37;10.40;99.90
11599;DHT22;5855;48.840;9.188;2023-04-01T08:30:16;10.40;99.90
11599;DHT22;5855;48.840;9.188;2023-04-01T08:32:48;10.40;99.90
11599;DHT22;5855;48.840;9.188;2023-04-01T08:35:24;10.40;99.90
11599;DHT22;5855;48.840;9.188;2023-04-01T08:37:53;10.40;99.90
11599;DHT22;5855;48.840;9.188;2023-04-01T08:40:56;10.40;99.90
11599;DHT22;5855;48.840;9.188;2023-04-01T08:46:27;10.10;99.90
11599;DHT22;5855;48.840;9.188;2023-04-01T08:49:08;9.90;99.90
11599;DHT22;5855;48.840;9.188;2023-04-01T08:55:14;9.60;99.90
11599;DHT22;5855;48.840;9.188;2023-04-01T08:58:00;9.50;99.90
11599;DHT22;5855;48.840;9.188;2023-04-01T09:00:31;9.50;99.90
11599;DHT22;5855;48.840;9.188;2023-04-01T09:03:31;9.40;99.90
11599;DHT22;5855;48.840;9.188;2023-04-01T09:06:20;9.40;99.90
11599;DHT22;5855;48.840;9.188;2023-04-01T09:09:07;9.40;99.90
11599;DHT22;5855;48.840;9.188;2023-04-01T09:11:50;9.40;99.90
11599;DHT22;5855;48.840;9.188;2023-04-01T09:14:33;9.50;99.90
11599;DHT22;5855;48.840;9.188;2023-04-01T09:20:17;9.60;99.90
11599;DHT22;5855;48.840;9.188;2023-04-01T09:22:53;9.70;99.90
11599;DHT22;5855;48.840;9.188;2023-04-01T09:25:44;9.80;99.90
11599;DHT22;5855;48.840;9.188;2023-04-01T09:28:18;9.80;99.90
11599;DHT22;5855;48.840;9.188;2023-04-01T09:31:01;10.00;99.90
11599;DHT22;5855;48.840;9.188;2023-04-01T09:33:53;10.20;99.90
11599;DHT22;5855;48.840;9.188;2023-04-01T09:36:43;10.30;99.90
11599;DHT22;5855;48.840;9.188;2023-04-01T09:42:34;10.30;99.90
11599;DHT22;5855;48.840;9.188;2023-04-01T09:45:17;10.30;99.90
11599;DHT22;5855;48.840;9.188;2023-04-01T09:48:00;10.30;99.90
11599;DHT22;5855;48.840;9.188;2023-04-01T09:50:35;10.20;99.90
11599;DHT22;5855;48.840;9.188;2023-04-01T09:53:18;10.30;99.90
11599;DHT22;5855;48.840;9.188;2023-04-01T09:59:32;10.20;99.90
11599;DHT22;5855;48.840;9.188;2023-04-01T10:02:26;10.20;99.90
11599;DHT22;5855;48.840;9.188;2023-04-01T10:14:31;10.30;99.90
11599;DHT22;5855;48.840;9.188;2023-04-01T10:17:29;10.30;99.90
11599;DHT22;5855;48.840;9.188;2023-04-01T10:20:30;10.40;99.90
11599;DHT22;5855;48.840;9.188;2023-04-01T10:23:22;10.50;99.90
11599;DHT22;5855;48.840;9.188;2023-04-01T10:26:18;10.60;99.90
11599;DHT22;5855;48.840;9.188;2023-04-01T10:29:12;10.70;99.90
11599;DHT22;5855;48.840;9.188;2023-04-01T10:32:07;10.90;99.90
11599;DHT22;5855;48.840;9.188;2023-04-01T10:35:04;10.90;99.90
11599;DHT22;5855;48.840;9.188;2023-04-01T10:38:00;10.90;99.90
11599;DHT22;5855;48.840;9.188;2023-04-01T10:40:53;10.80;99.90
11599;DHT22;5855;48.840;9.188;2023-04-01T10:43:42;10.80;99.90
11599;DHT22;5855;48.840;9.188;2023-04-01T10:49:43;10.50;99.90
11599;DHT22;5855;48.840;9.188;2023-04-01T10:52:38;10.60;99.90
11599;DHT22;5855;48.840;9.188;2023-04-01T10:58:53;10.60;99.90
11599;DHT22;5855;48.840;9.188;2023-04-01T11:01:55;10.70;99.90
11599;DHT22;5855;48.840;9.188;2023-04-01T11:04:57;10.70;99.90
11599;DHT22;5855;48.840;9.188;2023-04-01T11:08:04;10.80;99.90
11599;DHT22;5855;48.840;9.188;2023-04-01T11:17:42;11.00;99.90
11599;DHT22;5855;48.840;9.188;2023-04-01T11:20:33;11.10;99.90
11599;DHT22;5855;48.840;9.188;2023-04-01T11:23:32;11.10;99.90
11599;DHT22;5855;48.840;9.188;2023-04-01T11:26:08;11.30;99.90
11599;DHT22;5855;48.840;9.188;2023-04-01T11:29:04;11.50;99.90
11599;DHT22;5855;48.840;9.188;2023-04-01T11:31:48;11.60;99.90
11599;DHT22;5855;48.840;9.188;2023-04-01T11:34:35;11.60;99.90
11599;DHT22;5855;48.840;9.188;2023-04-01T11:37:15;11.70;99.90
11599;DHT22;5855;48.840;9.188;2023-04-01T11:39:56;11.70;99.90
11599;DHT22;5855;48.840;9.188;2023-04-01T11:42:30;11.80;99.90
11599;DHT22;5855;48.840;9.188;2023-04-01T11:45:11;11.90;99.90
11599;DHT22;5855;48.840;9.188;2023-04-01T11:48:03;11.90;99.90
11599;DHT22;5855;48.840;9.188;2023-04-01T11:50:41;12.00;99.90
11599;DHT22;5855;48.840;9.188;2023-04-01T11:53:25;12.00;99.90
11599;DHT22;5855;48.840;9.188;2023-04-01T11:56:03;12.00;99.90
11599;DHT22;5855;48.840;9.188;2023-04-01T11:58:57;11.80;99.90
11599;DHT22;5855;48.840;9.188;2023-04-01T12:01:48;11.50;99.90
11599;DHT22;5855;48.840;9.188;2023-04-01T12:07:40;11.60;99.90
11599;DHT22;5855;48.840;9.188;2023-04-01T12:10:17;11.60;99.90
11599;DHT22;5855;48.840;9.188;2023-04-01T12:12:52;11.40;99.90
11599;DHT22;5855;48.840;9.188;2023-04-01T12:15:29;11.40;99.90
11599;DHT22;5855;48.840;9.188;2023-04-01T12:18:03;11.30;99.90
11599;DHT22;5855;48.840;9.188;2023-04-01T12:20:43;11.30;99.90
11599;DHT22;5855;48.840;9.188;2023-04-01T12:26:30;11.40;99.90
11599;DHT22;5855;48.840;9.188;2023-04-01T12:29:28;11.40;99.90
11599;DHT22;5855;48.840;9.188;2023-04-01T12:32:09;11.30;99.90
11599;DHT22;5855;48.840;9.188;2023-04-01T12:35:11;11.30;99.90
11599;DHT22;5855;48.840;9.188;2023-04-01T12:37:50;11.40;99.90
11599;DHT22;5855;48.840;9.188;2023-04-01T12:40:31;11.30;99.90
11599;DHT22;5855;48.840;9.188;2023-04-01T12:43:17;11.40;99.90
11599;DHT22;5855;48.840;9.188;2023-04-01T12:45:51;11.40;99.90
11599;DHT22;5855;48.840;9.188;2023-04-01T12:48:59;11.50;99.90
11599;DHT22;5855;48.840;9.188;2023-04-01T12:52:06;11.50;99.90
11599;DHT22;5855;48.840;9.188;2023-04-01T12:58:01;11.60;99.90
11599;DHT22;5855;48.840;9.188;2023-04-01T13:00:43;11.50;99.90
11599;DHT22;5855;48.840;9.188;2023-04-01T13:03:22;11.60;99.90
11599;DHT22;5855;48.840;9.188;2023-04-01T13:06:17;11.60;99.90
11599;DHT22;5855;48.840;9.188;2023-04-01T13:08:53;11.80;99.90
11599;DHT22;5855;48.840;9.188;2023-04-01T13:11:34;11.70;99.90
11599;DHT22;5855;48.840;9.188;2023-04-01T13:14:24;11.70;99.90
11599;DHT22;5855;48.840;9.188;2023-04-01T13:16:59;11.50;99.90
11599;DHT22;5855;48.840;9.188;2023-04-01T13:19:34;11.40;99.90
11599;DHT22;5855;48.840;9.188;2023-04-01T13:22:10;11.30;99.90
11599;DHT22;5855;48.840;9.188;2023-04-01T13:24:46;11.30;99.90
11599;DHT22;5855;48.840;9.188;2023-04-01T13:27:20;11.30;99.90
11599;DHT22;5855;48.840;9.188;2023-04-01T13:30:01;11.30;99.90
11599;DHT22;5855;48.840;9.188;2023-04-01T13:32:34;11.50;99.90
11599;DHT22;5855;48.840;9.188;2023-04-01T13:35:15;11.80;99.90
11599;DHT22;5855;48.840;9.188;2023-04-01T13:37:54;11.90;99.90
11599;DHT22;5855;48.840;9.188;2023-04-01T13:40:33;11.90;99.90
11599;DHT22;5855;48.840;9.188;2023-04-01T13:43:07;11.70;99.90
11599;DHT22;5855;48.840;9.188;2023-04-01T13:48:35;11.60;99.90
11599;DHT22;5855;48.840;9.188;2023-04-01T13:57:19;11.50;99.90
11599;DHT22;5855;48.840;9.188;2023-04-01T14:00:02;11.60;99.90
11599;DHT22;5855;48.840;9.188;2023-04-01T14:02:47;11.80;99.90
11599;DHT22;5855;48.840;9.188;2023-04-01T14:05:44;11.90;99.90
11599;DHT22;5855;48.840;9.188;2023-04-01T14:08:20;11.60;99.90
11599;DHT22;5855;48.840;9.188;2023-04-01T14:10:59;11.60;99.90
11599;DHT22;5855;48.840;9.188;2023-04-01T14:13:34;11.60;99.90
11599;DHT22;5855;48.840;9.188;2023-04-01T14:16:14;11.60;99.90
11599;DHT22;5855;48.840;9.188;2023-04-01T14:19:00;11.80;99.90
11599;DHT22;5855;48.840;9.188;2023-04-01T14:21:37;11.60;99.90
11599;DHT22;5855;48.840;9.188;2023-04-01T14:24:22;11.40;99.90
11599;DHT22;5855;48.840;9.188;2023-04-01T14:27:21;11.40;99.90
11599;DHT22;5855;48.840;9.188;2023-04-01T14:30:01;11.30;99.90
11599;DHT22;5855;48.840;9.188;2023-04-01T14:32:39;11.20;99.90
11599;DHT22;5855;48.840;9.188;2023-04-01T14:35:24;11.20;99.90
11599;DHT22;5855;48.840;9.188;2023-04-01T14:38:02;11.10;99.90
11599;DHT22;5855;48.840;9.188;2023-04-01T14:40:45;10.90;99.90
11599;DHT22;5855;48.840;9.188;2023-04-01T14:43:47;10.70;99.90
11599;DHT22;5855;48.840;9.188;2023-04-01T14:46:27;10.60;99.90
11599;DHT22;5855;48.840;9.188;2023-04-01T14:49:01;10.70;99.90
11599;DHT22;5855;48.840;9.188;2023-04-01T14:51:33;10.70;99.90
11599;DHT22;5855;48.840;9.188;2023-04-01T14:54:05;10.70;99.90
11599;DHT22;5855;48.840;9.188;2023-04-01T14:56:40;10.80;99.90
11599;DHT22;5855;48.840;9.188;2023-04-01T14:59:13;10.90;99.90
11599;DHT22;5855;48.840;9.188;2023-04-01T15:01:47;11.00;99.90
11599;DHT22;5855;48.840;9.188;2023-04-01T15:04:46;11.00;99.90
11599;DHT22;5855;48.840;9.188;2023-04-01T15:07:42;11.10;99.90
11599;DHT22;5855;48.840;9.188;2023-04-01T15:10:30;11.20;99.90
11599;DHT22;5855;48.840;9.188;2023-04-01T15:13:10;11.20;99.90
11599;DHT22;5855;48.840;9.188;2023-04-01T15:15:48;11.20;99.90
11599;DHT22;5855;48.840;9.188;2023-04-01T15:18:25;11.30;99.90
11599;DHT22;5855;48.840;9.188;2023-04-01T15:21:08;11.40;99.90
11599;DHT22;5855;48.840;9.188;2023-04-01T15:23:46;11.40;99.90
11599;DHT22;5855;48.840;9.188;2023-04-01T15:26:25;11.40;99.90
11599;DHT22;5855;48.840;9.188;2023-04-01T15:29:11;11.50;99.90
11599;DHT22;5855;48.840;9.188;2023-04-01T15:31:47;11.50;99.90
11599;DHT22;5855;48.840;9.188;2023-04-01T15:34:26;11.50;99.90
11599;DHT22;5855;48.840;9.188;2023-04-01T15:37:01;11.40;99.90
11599;DHT22;5855;48.840;9.188;2023-04-01T15:39:43;11.40;99.90
11599;DHT22;5855;48.840;9.188;2023-04-01T15:42:29;11.50;99.90
11599;DHT22;5855;48.840;9.188;2023-04-01T15:45:05;11.40;99.90
11599;DHT22;5855;48.840;9.188;2023-04-01T15:47:42;11.40;99.90
11599;DHT22;5855;48.840;9.188;2023-04-01T15:50:36;11.30;99.90
11599;DHT22;5855;48.840;9.188;2023-04-01T15:53:18;11.30;99.90
11599;DHT22;5855;48.840;9.188;2023-04-01T15:55:55;11.30;99.90
11599;DHT22;5855;48.840;9.188;2023-04-01T15:58:41;11.20;99.90
11599;DHT22;5855;48.840;9.188;2023-04-01T16:01:18;11.20;99.90
11599;DHT22;5855;48.840;9.188;2023-04-01T16:03:53;11.20;99.90
11599;DHT22;5855;48.840;9.188;2023-04-01T16:06:45;11.10;99.90
11599;DHT22;5855;48.840;9.188;2023-04-01T16:12:17;11.10;99.90
11599;DHT22;5855;48.840;9.188;2023-04-01T16:14:56;11.00;99.90
11599;DHT22;5855;48.840;9.188;2023-04-01T16:17:48;11.10;99.90
11599;DHT22;5855;48.840;9.188;2023-04-01T16:20:19;11.10;99.90
11599;DHT22;5855;48.840;9.188;2023-04-01T16:22:53;11.10;99.90
11599;DHT22;5855;48.840;9.188;2023-04-01T16:25:31;11.10;99.90
11599;DHT22;5855;48.840;9.188;2023-04-01T16:28:09;11.10;99.90
11599;DHT22;5855;48.840;9.188;2023-04-01T16:30:44;11.00;99.90
11599;DHT22;5855;48.840;9.188;2023-04-01T16:33:15;11.00;99.90
11599;DHT22;5855;48.840;9.188;2023-04-01T16:35:53;10.90;99.90
11599;DHT22;5855;48.840;9.188;2023-04-01T16:38:25;10.90;99.90
11599;DHT22;5855;48.840;9.188;2023-04-01T16:41:01;11.00;99.90
11599;DHT22;5855;48.840;9.188;2023-04-01T16:43:40;11.00;99.90
11599;DHT22;5855;48.840;9.188;2023-04-01T16:46:26;10.90;99.90
11599;DHT22;5855;48.840;9.188;2023-04-01T16:49:23;10.90;99.90
11599;DHT22;5855;48.840;9.188;2023-04-01T16:51:54;10.80;99.90
11599;DHT22;5855;48.840;9.188;2023-04-01T16:54:28;10.90;99.90
11599;DHT22;5855;48.840;9.188;2023-04-01T16:57:03;10.90;99.90
11599;DHT22;5855;48.840;9.188;2023-04-01T16:59:36;10.90;99.90
11599;DHT22;5855;48.840;9.188;2023-04-01T17:02:09;10.90;99.90
11599;DHT22;5855;48.840;9.188;2023-04-01T17:04:41;10.90;99.90
11599;DHT22;5855;48.840;9.188;2023-04-01T17:07:21;10.80;99.90
11599;DHT22;5855;48.840;9.188;2023-04-01T17:10:06;10.80;99.90
11599;DHT22;5855;48.840;9.188;2023-04-01T17:12:42;10.80;99.90
11599;DHT22;5855;48.840;9.188;2023-04-01T17:15:20;10.80;99.90
11599;DHT22;5855;48.840;9.188;2023-04-01T17:17:52;10.80;99.90
11599;DHT22;5855;48.840;9.188;2023-04-01T17:20:31;10.80;99.90
11599;DHT22;5855;48.840;9.188;2023-04-01T17:23:08;10.80;99.90
11599;DHT22;5855;48.840;9.188;2023-04-01T17:25:49;10.70;99.90
11599;DHT22;5855;48.840;9.188;2023-04-01T17:28:30;10.70;99.90
11599;DHT22;5855;48.840;9.188;2023-04-01T17:31:09;10.80;99.90
11599;DHT22;5855;48.840;9.188;2023-04-01T17:33:57;10.80;99.90
11599;DHT22;5855;48.840;9.188;2023-04-01T17:36:36;10.80;99.90
11599;DHT22;5855;48.840;9.188;2023-04-01T17:42:18;10.80;99.90
11599;DHT22;5855;48.840;9.188;2023-04-01T17:44:54;10.80;99.90
11599;DHT22;5855;48.840;9.188;2023-04-01T17:47:38;10.80;99.90
11599;DHT22;5855;48.840;9.188;2023-04-01T17:50:21;10.80;99.90
11599;DHT22;5855;48.840;9.188;2023-04-01T17:52:55;10.80;99.90
11599;DHT22;5855;48.840;9.188;2023-04-01T17:55:43;10.70;99.90
11599;DHT22;5855;48.840;9.188;2023-04-01T17:58:19;10.80;99.90
11599;DHT22;5855;48.840;9.188;2023-04-01T18:01:05;10.80;99.90
11599;DHT22;5855;48.840;9.188;2023-04-01T18:04:01;10.70;99.90